createdAt,value
2018-10-12T00:01:32.336Z,4.5
2018-10-12T00:04:32.479Z,4.5
2018-10-12T00:07:32.603Z,4.6
2018-10-12T00:10:32.430Z,4.8
2018-10-12T00:13:32.357Z,4.6
2018-10-12T00:16:32.481Z,4.5
2018-10-12T00:19:33.112Z,4.6
2018-10-12T00:22:32.401Z,4.5
2018-10-12T00:25:32.175Z,4.5
2018-10-12T00:28:32.167Z,4.6
2018-10-12T00:31:32.275Z,4.9
2018-10-12T00:34:32.290Z,4.8
2018-10-12T00:37:32.347Z,4.6
2018-10-12T00:40:32.715Z,4.6
2018-10-12T00:43:32.307Z,4.6
2018-10-12T00:46:32.225Z,4.6
2018-10-12T00:49:32.332Z,4.4
2018-10-12T00:52:32.198Z,4.4
2018-10-12T00:55:32.400Z,4.5
2018-10-12T00:58:32.262Z,4.4
2018-10-12T01:01:32.088Z,4.4
2018-10-12T01:04:32.083Z,4.3
2018-10-12T01:07:32.140Z,4.5
2018-10-12T01:10:32.195Z,4.5
2018-10-12T01:13:32.307Z,4.5
2018-10-12T01:16:32.263Z,4.4
2018-10-12T01:19:32.186Z,4.6
2018-10-12T01:22:32.757Z,4.6
2018-10-12T01:25:32.339Z,4.6
2018-10-12T01:28:32.400Z,4.7
2018-10-12T01:31:32.169Z,4.5
2018-10-12T01:34:32.226Z,4.3
2018-10-12T01:37:32.468Z,4.4
2018-10-12T01:40:32.405Z,4.5
2018-10-12T01:43:32.278Z,4.4
2018-10-12T01:46:32.183Z,4.5
2018-10-12T01:49:32.321Z,4.6
2018-10-12T01:52:32.267Z,4.6
2018-10-12T01:55:32.402Z,4.5
2018-10-12T01:58:32.479Z,4.7
2018-10-12T02:01:32.241Z,4.6
2018-10-12T02:04:32.170Z,4.7
2018-10-12T02:07:32.122Z,4.5
2018-10-12T02:10:32.285Z,4.6
2018-10-12T02:13:32.201Z,4.5
2018-10-12T02:16:32.556Z,4.4
2018-10-12T02:19:32.122Z,4.4
2018-10-12T02:22:32.467Z,4.5
2018-10-12T02:25:32.277Z,4.6
2018-10-12T02:28:32.204Z,4.7
2018-10-12T02:31:32.222Z,4.5
2018-10-12T02:34:32.193Z,4.4
2018-10-12T02:37:32.079Z,4.6
2018-10-12T02:40:32.088Z,4.5
2018-10-12T02:43:32.605Z,4.6
2018-10-12T02:46:32.400Z,4.5
2018-10-12T02:49:32.252Z,4.6
2018-10-12T02:52:32.368Z,4.6
2018-10-12T02:55:32.429Z,4.6
2018-10-12T02:58:32.190Z,4.6
2018-10-12T03:01:32.225Z,4.8
2018-10-12T03:04:32.248Z,4.6
2018-10-12T03:07:32.092Z,4.7
2018-10-12T03:10:32.274Z,4.6
2018-10-12T03:13:32.662Z,4.7
2018-10-12T03:16:32.278Z,4.7
2018-10-12T03:19:32.165Z,4.7
2018-10-12T03:22:32.597Z,4.7
2018-10-12T03:25:32.211Z,4.8
2018-10-12T03:28:32.176Z,4.7
2018-10-12T03:31:32.543Z,4.6
2018-10-12T03:34:32.453Z,4.6
2018-10-12T03:37:32.436Z,4.6
2018-10-12T03:40:32.407Z,4.8
2018-10-12T03:43:32.258Z,4.8
2018-10-12T03:46:32.148Z,4.7
2018-10-12T03:49:32.401Z,4.8
2018-10-12T03:52:32.090Z,4.7
2018-10-12T03:55:32.052Z,4.7
2018-10-12T03:58:31.976Z,4.7
2018-10-12T04:01:32.007Z,4.8
2018-10-12T04:04:32.471Z,4.9
2018-10-12T04:07:32.209Z,4.8
2018-10-12T04:10:32.123Z,4.8
2018-10-12T04:13:32.127Z,4.7
2018-10-12T04:16:32.686Z,4.6
2018-10-12T04:19:31.930Z,4.5
2018-10-12T04:22:32.077Z,4.9
2018-10-12T04:25:32.242Z,4.7
2018-10-12T04:28:32.132Z,4.7
2018-10-12T04:31:32.117Z,4.7
2018-10-12T04:34:32.108Z,4.7
2018-10-12T04:37:32.006Z,4.7
2018-10-12T04:40:32.141Z,4.7
2018-10-12T04:43:32.123Z,4.7
2018-10-12T04:46:32.347Z,4.8
2018-10-12T04:49:32.454Z,4.7
2018-10-12T04:52:32.224Z,4.7
2018-10-12T04:55:32.147Z,4.7
2018-10-12T04:58:32.168Z,4.7
2018-10-12T05:01:32.030Z,4.8
2018-10-12T05:04:32.066Z,4.8
2018-10-12T05:07:32.904Z,4.8
2018-10-12T05:10:32.419Z,4.7
2018-10-12T05:13:32.233Z,4.6
2018-10-12T05:16:32.167Z,4.6
2018-10-12T05:19:32.465Z,4.6
2018-10-12T05:22:32.050Z,4.8
2018-10-12T05:25:32.090Z,4.9
2018-10-12T05:28:32.200Z,4.8
2018-10-12T05:31:32.024Z,4.7
2018-10-12T05:34:32.121Z,4.7
2018-10-12T05:37:32.141Z,4.7
2018-10-12T05:40:32.116Z,4.7
2018-10-12T05:43:34.762Z,4.7
2018-10-12T05:46:32.043Z,4.6
2018-10-12T05:49:32.506Z,4.5
2018-10-12T05:52:32.150Z,4.6
2018-10-12T05:55:32.020Z,4.6
2018-10-12T05:58:31.984Z,4.6
2018-10-12T06:01:32.041Z,4.5
2018-10-12T06:04:32.091Z,4.6
2018-10-12T06:07:32.293Z,4.7
2018-10-12T06:10:32.127Z,4.7
2018-10-12T06:13:32.172Z,4.7
2018-10-12T06:16:32.436Z,4.7
2018-10-12T06:19:32.419Z,4.8
2018-10-12T06:22:32.363Z,4.6
2018-10-12T06:25:32.619Z,4.6
2018-10-12T06:28:32.330Z,4.7
2018-10-12T06:31:32.588Z,4.6
2018-10-12T06:34:32.200Z,4.7
2018-10-12T06:37:32.059Z,4.6
2018-10-12T06:40:32.264Z,4.6
2018-10-12T06:43:32.016Z,4.6
2018-10-12T06:46:33.256Z,4.6
2018-10-12T06:49:31.963Z,4.7
2018-10-12T06:52:31.961Z,4.7
2018-10-12T06:55:32.146Z,4.7
2018-10-12T06:58:32.129Z,4.7
2018-10-12T07:01:32.036Z,4.5
2018-10-12T07:04:32.188Z,4.6
2018-10-12T07:07:32.487Z,4.5
2018-10-12T07:10:32.150Z,4.5
2018-10-12T07:13:31.996Z,4.5
2018-10-12T07:16:31.992Z,4.5
2018-10-12T07:19:34.091Z,4.4
2018-10-12T07:22:32.275Z,4.4
2018-10-12T07:25:32.508Z,4.5
2018-10-12T07:28:32.131Z,4.4
2018-10-12T07:31:33.706Z,4.5
2018-10-12T07:34:32.394Z,9.1
2018-10-12T07:37:32.912Z,11.9
2018-10-12T07:40:31.923Z,15
2018-10-12T07:43:32.198Z,14.3
2018-10-12T07:46:32.166Z,13.1
2018-10-12T07:49:31.945Z,11.6
2018-10-12T07:52:31.978Z,12
2018-10-12T07:55:31.982Z,12.5
2018-10-12T07:58:33.116Z,11.6
2018-10-12T08:01:32.173Z,12.8
2018-10-12T08:04:31.952Z,11.7
2018-10-12T08:07:32.076Z,10.4
2018-10-12T08:10:31.907Z,9.9
2018-10-12T08:13:33.128Z,10.8
2018-10-12T08:16:32.435Z,9.8
2018-10-12T08:19:32.108Z,9.1
2018-10-12T08:22:32.422Z,8.9
2018-10-12T08:25:31.984Z,8.9
2018-10-12T08:28:32.011Z,9.1
2018-10-12T08:31:33.776Z,8.7
2018-10-12T08:34:32.092Z,9.1
2018-10-12T08:37:31.926Z,8.8
2018-10-12T08:40:32.026Z,8.5
2018-10-12T08:43:32.153Z,7.9
2018-10-12T08:46:32.155Z,7.9
2018-10-12T08:49:32.417Z,8.2
2018-10-12T08:52:32.069Z,8.2
2018-10-12T08:55:34.083Z,7.9
2018-10-12T08:58:32.481Z,7.8
2018-10-12T09:01:32.125Z,7.7
2018-10-12T09:04:32.204Z,8.2
2018-10-12T09:07:32.201Z,8
2018-10-12T09:10:32.074Z,7.7
2018-10-12T09:13:32.028Z,7.6
2018-10-12T09:16:32.162Z,7.6
2018-10-12T09:19:32.103Z,7.5
2018-10-12T09:22:32.111Z,7.4
2018-10-12T09:25:32.215Z,7.4
2018-10-12T09:28:33.269Z,7.3
2018-10-12T09:31:32.310Z,7.2
2018-10-12T09:34:32.316Z,7
2018-10-12T09:37:32.323Z,7.1
2018-10-12T09:40:31.905Z,7
2018-10-12T09:43:32.475Z,6.9
2018-10-12T09:46:32.189Z,7
2018-10-12T09:49:32.216Z,6.8
2018-10-12T09:52:32.063Z,7.1
2018-10-12T09:55:32.139Z,6.9
2018-10-12T09:58:32.059Z,6.8
2018-10-12T10:01:32.166Z,6.7
2018-10-12T10:04:32.099Z,6.8
2018-10-12T10:07:34.153Z,6.7
2018-10-12T10:10:32.368Z,6.7
2018-10-12T10:13:32.238Z,6.7
2018-10-12T10:16:32.187Z,6.8
2018-10-12T10:19:32.541Z,6.7
2018-10-12T10:22:34.327Z,6.6
2018-10-12T10:25:32.332Z,6.6
2018-10-12T10:28:32.605Z,6.5
2018-10-12T10:31:32.308Z,6.7
2018-10-12T10:34:32.014Z,6.8
2018-10-12T10:37:32.119Z,6.6
2018-10-12T10:40:32.169Z,6.4
2018-10-12T10:43:32.192Z,6.4
2018-10-12T10:46:32.492Z,6.6
2018-10-12T10:49:32.140Z,6.4
2018-10-12T10:52:32.068Z,6.6
2018-10-12T10:55:32.587Z,6.8
2018-10-12T10:58:32.058Z,6.8
2018-10-12T11:01:31.971Z,7
2018-10-12T11:04:32.138Z,6.7
2018-10-12T11:07:31.953Z,7.2
2018-10-12T11:10:32.054Z,7
2018-10-12T11:13:32.059Z,6.7
2018-10-12T11:16:32.110Z,6.4
2018-10-12T11:19:33.474Z,6.7
2018-10-12T11:22:32.092Z,6.7
2018-10-12T11:25:32.038Z,6.6
2018-10-12T11:28:32.213Z,6.5
2018-10-12T11:31:32.441Z,6.5
2018-10-12T11:34:33.063Z,6.5
2018-10-12T11:37:32.353Z,6.4
2018-10-12T11:40:32.278Z,7.5
2018-10-12T11:43:31.960Z,6.8
2018-10-12T11:46:32.417Z,6.9
2018-10-12T11:49:31.814Z,7.2
2018-10-12T11:52:32.188Z,6.8
2018-10-12T11:55:31.827Z,6.7
2018-10-12T11:58:32.198Z,6.4
2018-10-12T12:01:31.989Z,6.2
2018-10-12T12:04:32.397Z,6
2018-10-12T12:07:31.876Z,6.1
2018-10-12T12:10:32.346Z,6.1
2018-10-12T12:13:32.848Z,6.1
2018-10-12T12:16:32.165Z,5.9
2018-10-12T12:19:32.783Z,6
2018-10-12T12:22:31.980Z,6
2018-10-12T12:25:32.191Z,6
2018-10-12T12:28:32.352Z,6.1
2018-10-12T12:31:32.016Z,6.4
2018-10-12T12:34:33.718Z,6.4
2018-10-12T12:37:32.026Z,6.3
2018-10-12T12:40:31.851Z,6.2
2018-10-12T12:43:31.901Z,6
2018-10-12T12:46:31.856Z,5.9
2018-10-12T12:49:34.937Z,6
2018-10-12T12:52:32.199Z,5.9
2018-10-12T12:55:31.996Z,5.8
2018-10-12T12:58:31.873Z,5.7
2018-10-12T13:01:32.205Z,5.7
2018-10-12T13:04:32.114Z,5.8
2018-10-12T13:07:32.190Z,5.8
2018-10-12T13:10:32.413Z,5.7
2018-10-12T13:13:33.130Z,5.7
2018-10-12T13:16:32.012Z,5.8
2018-10-12T13:19:32.306Z,5.8
2018-10-12T13:22:31.954Z,5.6
2018-10-12T13:25:33.035Z,5.7
2018-10-12T13:28:32.472Z,5.6
2018-10-12T13:31:32.266Z,5.5
2018-10-12T13:34:31.945Z,5.6
2018-10-12T13:37:32.288Z,5.8
2018-10-12T13:40:31.885Z,5.5
2018-10-12T13:43:31.920Z,5.4
2018-10-12T13:46:32.885Z,5.3
2018-10-12T13:49:31.862Z,5.4
2018-10-12T13:52:32.424Z,5.6
2018-10-12T13:55:31.882Z,5.6
2018-10-12T13:58:32.232Z,5.5
2018-10-12T14:01:32.237Z,5.3
2018-10-12T14:04:32.047Z,5.3
2018-10-12T14:07:32.155Z,5.4
2018-10-12T14:10:31.850Z,5.6
2018-10-12T14:13:32.015Z,5.4
2018-10-12T14:16:32.156Z,5.7
2018-10-12T14:19:33.918Z,5.4
2018-10-12T14:22:32.054Z,5.4
2018-10-12T14:25:31.750Z,5.3
2018-10-12T14:28:32.050Z,5.3
2018-10-12T14:31:33.673Z,5.3
2018-10-12T14:34:31.835Z,5.2
2018-10-12T14:37:32.199Z,5
2018-10-12T14:40:32.370Z,5.1
2018-10-12T14:43:32.373Z,5.1
2018-10-12T14:46:32.014Z,5.1
2018-10-12T14:49:31.993Z,5
2018-10-12T14:52:32.139Z,4.9
2018-10-12T14:55:31.758Z,4.7
2018-10-12T14:58:32.071Z,4.9
2018-10-12T15:01:32.120Z,5.1
2018-10-12T15:04:31.833Z,5
2018-10-12T15:07:31.854Z,5
2018-10-12T15:10:32.214Z,5
2018-10-12T15:13:32.078Z,5.2
2018-10-12T15:16:31.863Z,5
2018-10-12T15:19:31.931Z,4.9
2018-10-12T15:22:31.929Z,4.8
2018-10-12T15:25:33.796Z,4.8
2018-10-12T15:28:32.023Z,4.8
2018-10-12T15:31:32.039Z,4.7
2018-10-12T15:34:31.836Z,4.7
2018-10-12T15:37:32.656Z,4.7
2018-10-12T15:40:32.041Z,4.8
2018-10-12T15:43:32.180Z,4.5
2018-10-12T15:46:31.791Z,4.6
2018-10-12T15:49:32.163Z,4.5
2018-10-12T15:52:31.928Z,4.6
2018-10-12T15:55:31.766Z,4.6
2018-10-12T15:58:31.756Z,4.6
2018-10-12T16:01:31.730Z,4.8
2018-10-12T16:04:31.714Z,4.6
2018-10-12T16:07:31.984Z,4.6
2018-10-12T16:10:31.957Z,4.5
2018-10-12T16:13:31.902Z,4.5
2018-10-12T16:16:31.829Z,4.5
2018-10-12T16:19:32.067Z,4.4
2018-10-12T16:22:34.250Z,4.3
2018-10-12T16:25:32.393Z,4.4
2018-10-12T16:28:31.872Z,4.3
2018-10-12T16:31:31.906Z,4.5
2018-10-12T16:34:32.121Z,4.6
2018-10-12T16:37:31.840Z,4.5
2018-10-12T16:40:31.717Z,4.5
2018-10-12T16:43:31.709Z,4.4
2018-10-12T16:46:31.792Z,4.3
2018-10-12T16:49:31.911Z,4.2
2018-10-12T16:52:31.830Z,4.1
2018-10-12T16:55:32.115Z,4.1
2018-10-12T16:58:31.861Z,4.2
2018-10-12T17:01:31.805Z,4.2
2018-10-12T17:04:32.130Z,4.1
2018-10-12T17:07:31.714Z,4.2
2018-10-12T17:10:31.919Z,4.2
2018-10-12T17:13:31.661Z,4.3
2018-10-12T17:16:31.736Z,5
2018-10-12T17:19:31.778Z,4.5
2018-10-12T17:22:31.702Z,4.4
2018-10-12T17:25:31.834Z,4.3
2018-10-12T17:28:31.864Z,4.3
2018-10-12T17:31:32.061Z,4.2
2018-10-12T17:34:32.120Z,4.1
2018-10-12T17:37:32.024Z,4.2
2018-10-12T17:40:31.721Z,4.2
2018-10-12T17:43:32.509Z,4.1
2018-10-12T17:46:32.119Z,4.1
2018-10-12T17:49:31.755Z,4.3
2018-10-12T17:52:31.888Z,4.2
2018-10-12T17:55:32.089Z,4
2018-10-12T17:58:31.736Z,4
2018-10-12T18:01:32.142Z,4
2018-10-12T18:04:31.849Z,4.1
2018-10-12T18:07:31.803Z,4.1
2018-10-12T18:10:32.337Z,5.4
2018-10-12T18:13:31.951Z,5.7
2018-10-12T18:16:31.673Z,5.8
2018-10-12T18:19:32.121Z,5.1
2018-10-12T18:22:31.763Z,4.6
2018-10-12T18:25:31.978Z,5.2
2018-10-12T18:28:31.774Z,4.5
2018-10-12T18:31:32.007Z,4.8
2018-10-12T18:34:32.241Z,4.7
2018-10-12T18:37:32.052Z,4.4
2018-10-12T18:40:31.993Z,4.6
2018-10-12T18:43:31.838Z,5.3
2018-10-12T18:46:31.695Z,4.8
2018-10-12T18:49:31.962Z,4.3
2018-10-12T18:52:32.185Z,4.8
2018-10-12T18:55:31.727Z,4.8
2018-10-12T18:58:31.885Z,4.4
2018-10-12T19:01:31.738Z,4.5
2018-10-12T19:04:33.584Z,4.5
2018-10-12T19:07:32.235Z,4.7
2018-10-12T19:10:32.264Z,4.5
2018-10-12T19:13:33.141Z,5
2018-10-12T19:16:31.792Z,4.8
2018-10-12T19:19:33.186Z,4.4
2018-10-12T19:22:31.843Z,5.9
2018-10-12T19:25:32.025Z,5
2018-10-12T19:28:31.907Z,4.4
2018-10-12T19:31:34.794Z,5.4
2018-10-12T19:34:31.766Z,7.4
2018-10-12T19:37:31.813Z,7
2018-10-12T19:40:31.705Z,6.9
2018-10-12T19:43:31.813Z,7.8
2018-10-12T19:46:31.753Z,9.4
2018-10-12T19:49:31.735Z,8.2
2018-10-12T19:52:31.973Z,7.8
2018-10-12T19:55:32.175Z,7.7
2018-10-12T19:58:31.951Z,7
2018-10-12T20:01:32.616Z,6
2018-10-12T20:04:31.760Z,5.6
2018-10-12T20:07:33.013Z,5.5
2018-10-12T20:10:34.047Z,7
2018-10-12T20:13:32.067Z,7
2018-10-12T20:16:32.034Z,6.8
2018-10-12T20:19:31.836Z,5.9
2018-10-12T20:22:31.790Z,6.6
2018-10-12T20:25:31.808Z,5.9
2018-10-12T20:28:31.623Z,5.4
2018-10-12T20:31:33.337Z,5.6
2018-10-12T20:34:32.080Z,5
2018-10-12T20:37:32.054Z,5
2018-10-12T20:40:32.103Z,6.5
2018-10-12T20:43:31.849Z,5.9
2018-10-12T20:46:31.760Z,5.7
2018-10-12T20:49:32.147Z,4.9
2018-10-12T20:52:31.682Z,5.2
2018-10-12T20:55:31.712Z,5.1
2018-10-12T20:58:31.661Z,5.2
2018-10-12T21:01:31.777Z,5.5
2018-10-12T21:04:31.839Z,5.7
2018-10-12T21:07:31.730Z,5.9
2018-10-12T21:10:31.726Z,4.7
2018-10-12T21:13:31.650Z,4.7
2018-10-12T21:16:32.038Z,4.1
2018-10-12T21:19:32.061Z,4.1
2018-10-12T21:22:31.687Z,4.2
2018-10-12T21:25:31.706Z,4.3
2018-10-12T21:28:31.998Z,4.5
2018-10-12T21:31:31.957Z,4.7
2018-10-12T21:34:31.789Z,4.2
2018-10-12T21:37:31.792Z,4.2
2018-10-12T21:40:31.792Z,4.2
2018-10-12T21:43:31.758Z,4.2
2018-10-12T21:46:32.553Z,4.1
2018-10-12T21:49:31.737Z,4
2018-10-12T21:52:32.613Z,4.7
2018-10-12T21:55:31.952Z,4.9
2018-10-12T21:58:32.238Z,4.2
2018-10-12T22:01:32.087Z,3.8
2018-10-12T22:04:31.638Z,3.6
2018-10-12T22:07:31.813Z,3.7
2018-10-12T22:10:32.015Z,3.5
2018-10-12T22:13:31.985Z,3.9
2018-10-12T22:16:31.782Z,3.6
2018-10-12T22:19:31.862Z,3.6
2018-10-12T22:22:31.925Z,4
2018-10-12T22:25:32.578Z,3.7
2018-10-12T22:28:31.779Z,3.8
2018-10-12T22:31:31.691Z,3.6
2018-10-12T22:34:31.866Z,3.9
2018-10-12T22:37:31.830Z,4.3
2018-10-12T22:40:31.703Z,4.2
2018-10-12T22:43:31.747Z,3.8
2018-10-12T22:46:31.697Z,3.6
2018-10-12T22:49:31.763Z,3.4
2018-10-12T22:52:31.839Z,3.3
2018-10-12T22:55:32.031Z,3.3
2018-10-12T22:58:31.512Z,3.3
2018-10-12T23:01:31.983Z,3.7
2018-10-12T23:04:31.662Z,3.5
2018-10-12T23:07:31.571Z,3.3
2018-10-12T23:10:31.747Z,3.3
2018-10-12T23:13:31.782Z,3.2
2018-10-12T23:16:31.721Z,3.2
2018-10-12T23:19:31.698Z,3.1
2018-10-12T23:22:31.768Z,3.2
2018-10-12T23:25:31.756Z,3.1
2018-10-12T23:28:31.779Z,3.1
2018-10-12T23:31:31.598Z,3.1
2018-10-12T23:34:32.103Z,3.1
2018-10-12T23:37:31.740Z,3.2
2018-10-12T23:40:32.129Z,3.1
2018-10-12T23:43:31.650Z,3.2
2018-10-12T23:46:31.763Z,3.2
2018-10-12T23:49:32.051Z,3.4
2018-10-12T23:52:31.822Z,3.2
2018-10-12T23:55:31.779Z,3.1
2018-10-12T23:58:31.669Z,3.1
